createdAt,value
2022-12-03T00:01:55.908Z,14.23
2022-12-03T00:04:23.406Z,14.18
2022-12-03T00:06:53.249Z,14.50
2022-12-03T00:09:23.366Z,13.90
2022-12-03T00:11:50.904Z,13.73
2022-12-03T00:14:25.476Z,13.60
2022-12-03T00:16:56.101Z,13.35
2022-12-03T00:19:24.962Z,15.13
2022-12-03T00:21:53.829Z,14.57
2022-12-03T00:24:21.414Z,14.45
2022-12-03T00:26:51.400Z,15.70
2022-12-03T00:29:18.951Z,14.93
2022-12-03T00:31:46.497Z,14.20
2022-12-03T00:34:15.504Z,13.38
2022-12-03T00:36:43.068Z,13.55
2022-12-03T00:39:10.528Z,13.77
2022-12-03T00:41:38.508Z,12.57
2022-12-03T00:44:08.309Z,13.60
2022-12-03T00:49:20.517Z,13.60
2022-12-03T00:51:48.500Z,14.95
2022-12-03T00:54:15.952Z,14.38
2022-12-03T00:56:43.498Z,15.10
2022-12-03T00:59:12.146Z,14.32
2022-12-03T01:01:43.418Z,13.15
2022-12-03T01:04:11.559Z,13.05
2022-12-03T01:06:40.355Z,14.15
2022-12-03T01:09:08.176Z,14.93
2022-12-03T01:11:41.525Z,13.45
2022-12-03T01:14:16.889Z,13.32
2022-12-03T01:16:45.079Z,13.32
2022-12-03T01:19:16.320Z,14.45
2022-12-03T01:21:49.172Z,13.60
2022-12-03T01:26:46.521Z,12.77
2022-12-03T01:29:18.279Z,13.30
2022-12-03T01:32:03.941Z,14.30
2022-12-03T01:34:32.003Z,11.68
2022-12-03T01:37:00.540Z,12.20
2022-12-03T01:39:32.413Z,12.93
2022-12-03T01:42:00.316Z,11.00
2022-12-03T01:44:32.758Z,14.20
2022-12-03T01:47:03.081Z,14.73
2022-12-03T01:49:54.644Z,11.85
2022-12-03T01:52:30.795Z,12.32
2022-12-03T01:55:00.767Z,14.00
2022-12-03T01:57:35.131Z,13.48
2022-12-03T02:00:03.104Z,11.95
2022-12-03T02:02:33.420Z,12.90
2022-12-03T02:05:18.742Z,14.75
2022-12-03T02:07:46.571Z,14.13
2022-12-03T02:10:15.840Z,14.98
2022-12-03T02:13:07.855Z,12.90
2022-12-03T02:15:39.515Z,12.95
2022-12-03T02:18:09.200Z,14.18
2022-12-03T02:21:26.607Z,13.50
2022-12-03T02:24:24.255Z,12.95
2022-12-03T02:26:52.508Z,13.57
2022-12-03T02:29:19.933Z,13.40
2022-12-03T02:32:11.451Z,14.00
2022-12-03T02:34:46.279Z,14.48
2022-12-03T02:37:37.759Z,14.60
2022-12-03T02:40:12.129Z,13.68
2022-12-03T02:42:44.328Z,14.85
2022-12-03T02:45:25.646Z,14.18
2022-12-03T02:48:14.301Z,14.48
2022-12-03T02:50:57.891Z,12.93
2022-12-03T02:53:27.822Z,15.32
2022-12-03T02:55:58.111Z,14.65
2022-12-03T02:58:31.660Z,13.20
2022-12-03T03:01:03.034Z,13.82
2022-12-03T03:03:33.832Z,14.95
2022-12-03T03:06:07.618Z,13.88
2022-12-03T03:08:37.586Z,15.82
2022-12-03T03:11:07.876Z,14.70
2022-12-03T03:13:39.171Z,13.35
2022-12-03T03:16:08.027Z,12.85
2022-12-03T03:18:36.430Z,14.40
2022-12-03T03:21:04.826Z,12.63
2022-12-03T03:23:44.479Z,13.30
2022-12-03T03:26:14.639Z,12.40
2022-12-03T03:28:49.740Z,13.05
2022-12-03T03:31:21.696Z,12.80
2022-12-03T03:33:50.869Z,13.73
2022-12-03T03:36:19.775Z,13.73
2022-12-03T03:38:47.628Z,12.68
2022-12-03T03:41:17.266Z,13.07
2022-12-03T03:43:46.509Z,10.95
2022-12-03T03:46:14.990Z,13.70
2022-12-03T03:48:43.903Z,12.20
2022-12-03T03:51:12.707Z,12.10
2022-12-03T03:53:43.138Z,12.95
2022-12-03T03:56:12.444Z,13.23
2022-12-03T03:58:39.561Z,14.57
2022-12-03T04:01:07.699Z,15.25
2022-12-03T04:03:35.272Z,15.27
2022-12-03T04:06:04.655Z,10.70
2022-12-03T04:08:32.569Z,13.95
2022-12-03T04:11:18.766Z,13.20
2022-12-03T04:13:46.091Z,13.10
2022-12-03T04:16:14.927Z,15.50
2022-12-03T04:18:45.612Z,15.82
2022-12-03T04:21:37.350Z,14.73
2022-12-03T04:24:08.206Z,14.75
2022-12-03T04:26:54.370Z,13.18
2022-12-03T04:29:22.446Z,14.52
2022-12-03T04:32:08.570Z,13.57
2022-12-03T04:34:54.608Z,14.15
2022-12-03T04:37:25.590Z,15.75
2022-12-03T04:40:33.123Z,15.30
2022-12-03T04:43:01.508Z,16.85
2022-12-03T04:45:30.155Z,15.13
2022-12-03T04:47:57.641Z,17.20
2022-12-03T04:50:25.191Z,13.93
2022-12-03T04:52:52.589Z,15.63
2022-12-03T04:55:22.968Z,15.30
2022-12-03T04:57:51.434Z,17.30
2022-12-03T05:00:19.082Z,15.00
2022-12-03T05:02:46.475Z,14.75
2022-12-03T05:05:17.560Z,15.07
2022-12-03T05:07:50.787Z,16.52
2022-12-03T05:10:18.512Z,16.33
2022-12-03T05:12:46.022Z,15.85
2022-12-03T05:15:18.584Z,15.10
2022-12-03T05:17:46.691Z,14.70
2022-12-03T05:20:33.395Z,16.10
2022-12-03T05:23:02.818Z,16.13
2022-12-03T05:25:32.356Z,15.50
2022-12-03T05:27:59.748Z,16.70
2022-12-03T05:30:27.321Z,16.60
2022-12-03T05:32:54.836Z,16.17
2022-12-03T05:35:25.424Z,17.95
2022-12-03T05:37:55.400Z,18.88
2022-12-03T05:40:23.240Z,17.42
2022-12-03T05:43:01.505Z,16.38
2022-12-03T05:45:40.625Z,17.42
2022-12-03T05:48:11.929Z,17.35
2022-12-03T05:50:41.375Z,17.38
2022-12-03T05:53:17.989Z,18.15
2022-12-03T05:55:45.473Z,17.25
2022-12-03T05:58:12.974Z,17.88
2022-12-03T06:00:42.746Z,17.73
2022-12-03T06:03:11.231Z,17.70
2022-12-03T06:05:38.842Z,17.27
2022-12-03T06:08:06.386Z,17.85
2022-12-03T06:10:33.951Z,18.83
2022-12-03T06:13:02.357Z,17.45
2022-12-03T06:15:35.329Z,17.10
2022-12-03T06:18:09.804Z,18.48
2022-12-03T06:20:57.312Z,18.85
2022-12-03T06:23:29.127Z,18.00
2022-12-03T06:25:58.216Z,21.55
2022-12-03T06:28:25.716Z,18.42
2022-12-03T06:30:56.541Z,18.65
2022-12-03T06:33:24.072Z,17.83
2022-12-03T06:35:54.709Z,19.52
2022-12-03T06:38:25.310Z,19.00
2022-12-03T06:40:56.413Z,18.88
2022-12-03T06:43:31.160Z,18.27
2022-12-03T06:46:01.124Z,19.05
2022-12-03T06:48:28.675Z,18.52
2022-12-03T06:50:57.568Z,18.25
2022-12-03T06:53:26.496Z,18.63
2022-12-03T06:55:54.228Z,17.73
2022-12-03T06:58:24.141Z,17.63
2022-12-03T07:00:56.810Z,17.42
2022-12-03T07:05:52.612Z,17.95
2022-12-03T07:08:22.655Z,16.95
2022-12-03T07:10:51.352Z,18.65
2022-12-03T07:13:18.944Z,16.45
2022-12-03T07:15:47.046Z,17.80
2022-12-03T13:20:07.144Z,12.48
2022-12-03T13:47:26.402Z,9.93
2022-12-03T13:49:56.933Z,11.38
2022-12-03T13:52:25.975Z,11.75
2022-12-03T13:54:55.082Z,11.25
2022-12-03T13:57:22.250Z,13.10
2022-12-03T13:59:49.396Z,11.90
2022-12-03T14:02:16.460Z,11.85
2022-12-03T14:04:43.556Z,12.13
2022-12-03T14:07:10.520Z,12.98
2022-12-03T14:09:37.463Z,12.57
2022-12-03T14:12:23.174Z,12.20
2022-12-03T14:14:50.178Z,12.43
2022-12-03T14:17:17.200Z,12.90
2022-12-03T14:19:45.040Z,12.65
2022-12-03T14:22:12.107Z,13.32
2022-12-03T14:24:40.180Z,14.18
2022-12-03T14:27:07.122Z,12.80
2022-12-03T14:29:34.152Z,13.00
2022-12-03T14:32:01.201Z,13.00
2022-12-03T14:34:28.193Z,15.95
2022-12-03T14:36:55.189Z,15.50
2022-12-03T14:39:22.259Z,14.00
2022-12-03T14:42:07.919Z,13.73
2022-12-03T14:44:34.875Z,16.70
2022-12-03T14:47:01.929Z,15.27
2022-12-03T14:49:28.961Z,17.08
2022-12-03T14:51:56.082Z,17.02
2022-12-03T14:54:23.129Z,16.98
2022-12-03T14:56:50.106Z,15.82
2022-12-03T14:59:17.332Z,17.05
2022-12-03T15:01:44.440Z,17.30
2022-12-03T15:04:11.602Z,16.48
2022-12-03T15:06:38.776Z,18.40
2022-12-03T15:09:06.333Z,18.20
2022-12-03T15:11:33.368Z,17.67
2022-12-03T15:14:00.518Z,17.67
2022-12-03T15:16:27.601Z,18.58
2022-12-03T15:18:54.768Z,21.80
2022-12-03T15:21:21.870Z,22.80
2022-12-03T15:23:48.983Z,23.23
2022-12-03T15:26:15.914Z,23.75
2022-12-03T15:28:47.951Z,23.15
2022-12-03T15:31:15.534Z,23.00
2022-12-03T15:34:22.099Z,23.70
2022-12-03T15:36:50.602Z,22.13
2022-12-03T15:39:18.062Z,23.23
2022-12-03T15:41:45.451Z,22.30
2022-12-03T15:44:12.867Z,24.70
2022-12-03T15:46:40.512Z,24.25
2022-12-03T15:49:10.341Z,20.27
2022-12-03T15:51:38.336Z,19.85
2022-12-03T15:54:08.802Z,19.15
2022-12-03T15:56:37.862Z,19.45
2022-12-03T15:59:05.573Z,17.88
2022-12-03T16:01:37.358Z,18.95
2022-12-03T16:04:06.984Z,21.88
2022-12-03T16:06:34.991Z,20.48
2022-12-03T16:09:02.314Z,20.30
2022-12-03T16:11:29.985Z,19.08
2022-12-03T16:13:57.129Z,18.67
2022-12-03T16:16:24.867Z,16.10
2022-12-03T16:18:52.393Z,17.30
2022-12-03T16:21:24.978Z,18.17
2022-12-03T16:23:54.387Z,16.50
2022-12-03T16:26:27.981Z,15.82
2022-12-03T16:28:55.376Z,17.30
2022-12-03T16:31:23.122Z,18.17
2022-12-03T16:33:54.815Z,18.85
2022-12-03T16:36:22.328Z,18.88
2022-12-03T16:38:51.134Z,20.40
2022-12-03T16:41:19.202Z,23.10
2022-12-03T16:43:48.995Z,21.30
2022-12-03T16:46:19.006Z,22.65
2022-12-03T16:48:48.163Z,21.42
2022-12-03T16:51:16.455Z,23.83
2022-12-03T16:53:43.980Z,21.20
2022-12-03T16:56:12.231Z,23.77
2022-12-03T16:58:39.527Z,20.70
2022-12-03T17:01:08.140Z,21.58
2022-12-03T17:03:35.451Z,19.25
2022-12-03T17:06:03.607Z,21.27
2022-12-03T17:08:30.850Z,24.25
2022-12-03T17:10:59.931Z,25.60
2022-12-03T17:13:27.570Z,22.67
2022-12-03T17:15:55.352Z,24.10
2022-12-03T17:18:25.488Z,22.98
2022-12-03T17:20:52.775Z,23.35
2022-12-03T17:23:20.310Z,23.83
2022-12-03T17:25:47.869Z,24.25
2022-12-03T17:28:15.143Z,23.83
2022-12-03T17:30:44.650Z,24.88
2022-12-03T17:33:12.545Z,24.98
2022-12-03T17:35:43.538Z,26.35
2022-12-03T17:38:11.874Z,25.58
2022-12-03T17:40:39.437Z,25.73
2022-12-03T17:43:06.748Z,23.90
2022-12-03T17:45:36.666Z,25.00
2022-12-03T17:48:04.349Z,24.83
2022-12-03T17:50:32.137Z,25.40
2022-12-03T17:52:59.689Z,26.67
2022-12-03T17:55:37.007Z,24.92
2022-12-03T17:58:08.495Z,26.85
2022-12-03T18:00:35.767Z,26.02
2022-12-03T18:03:03.419Z,24.92
2022-12-03T18:05:30.817Z,25.88
2022-12-03T18:07:58.336Z,26.42
2022-12-03T18:10:26.119Z,26.52
2022-12-03T18:13:13.872Z,23.60
2022-12-03T18:15:44.852Z,21.10
2022-12-03T18:18:14.893Z,20.25
2022-12-03T18:20:44.306Z,19.98
2022-12-03T18:23:16.212Z,19.83
2022-12-03T18:25:46.106Z,20.73
2022-12-03T18:28:13.168Z,18.98
2022-12-03T18:30:50.641Z,18.27
2022-12-03T18:33:25.146Z,19.30
2022-12-03T18:36:00.199Z,18.48
2022-12-03T18:38:30.699Z,22.85
2022-12-03T18:41:00.941Z,21.13
2022-12-03T18:43:30.214Z,21.77
2022-12-03T18:45:58.022Z,19.67
2022-12-03T18:48:25.881Z,18.58
2022-12-03T18:50:53.098Z,21.45
2022-12-03T18:53:20.713Z,21.10
2022-12-03T18:55:48.207Z,17.92
2022-12-03T18:58:19.833Z,19.75
2022-12-03T19:00:48.905Z,20.05
2022-12-03T19:03:17.953Z,19.38
2022-12-03T19:05:45.502Z,19.35
2022-12-03T19:08:15.981Z,19.48
2022-12-03T19:10:44.612Z,21.15
2022-12-03T19:13:16.080Z,19.13
2022-12-03T19:15:43.752Z,20.02
2022-12-03T19:18:14.598Z,19.88
2022-12-03T19:20:43.386Z,21.13
2022-12-03T19:23:10.793Z,18.33
2022-12-03T19:25:39.601Z,20.95
2022-12-03T19:28:08.353Z,19.17
2022-12-03T19:30:36.499Z,20.70
2022-12-03T19:33:04.314Z,20.83
2022-12-03T19:35:33.185Z,19.05
2022-12-03T19:38:04.047Z,20.85
2022-12-03T19:40:33.130Z,20.10
2022-12-03T19:43:01.473Z,20.38
2022-12-03T19:45:30.452Z,19.48
2022-12-03T19:48:04.499Z,18.63
2022-12-03T19:50:32.972Z,18.92
2022-12-03T19:53:01.134Z,19.58
2022-12-03T19:55:31.483Z,20.02
2022-12-03T19:57:58.687Z,19.92
2022-12-03T20:00:30.324Z,19.65
2022-12-03T20:02:58.719Z,19.27
2022-12-03T20:05:33.010Z,20.73
2022-12-03T20:08:04.781Z,19.65
2022-12-03T20:10:45.227Z,19.65
2022-12-03T20:13:13.346Z,18.08
2022-12-03T20:15:44.158Z,17.92
2022-12-03T20:18:13.581Z,18.98
2022-12-03T20:20:43.955Z,21.58
2022-12-03T20:23:15.977Z,19.40
2022-12-03T20:25:45.325Z,20.75
2022-12-03T20:28:13.240Z,18.15
2022-12-03T20:30:43.014Z,17.85
2022-12-03T20:33:12.568Z,19.10
2022-12-03T20:35:40.325Z,17.30
2022-12-03T20:38:09.413Z,19.70
2022-12-03T20:40:37.695Z,18.73
2022-12-03T20:43:07.109Z,20.38
2022-12-03T20:45:34.943Z,18.95
2022-12-03T20:48:02.853Z,16.52
2022-12-03T20:50:30.543Z,17.63
2022-12-03T20:53:23.111Z,12.68
2022-12-03T20:55:59.544Z,18.70
2022-12-03T20:58:33.425Z,19.35
2022-12-03T21:01:23.506Z,18.85
2022-12-03T21:03:56.277Z,18.42
2022-12-03T21:06:27.236Z,21.17
2022-12-03T21:08:59.447Z,20.27
2022-12-03T21:11:33.979Z,22.15
2022-12-03T21:14:06.176Z,18.40
2022-12-03T21:19:31.164Z,19.90
2022-12-03T21:21:59.877Z,19.42
2022-12-03T21:24:30.241Z,20.02
2022-12-03T21:27:04.241Z,20.00
2022-12-03T21:29:32.973Z,20.50
2022-12-03T21:32:02.424Z,21.30
2022-12-03T21:34:36.138Z,22.42
2022-12-03T21:37:07.175Z,21.67
2022-12-03T21:39:35.158Z,22.88
2022-12-03T21:42:34.658Z,26.55
2022-12-03T21:44:55.728Z,28.58
2022-12-03T21:47:27.485Z,23.67
2022-12-03T21:49:57.209Z,25.55
2022-12-03T21:52:25.310Z,25.00
2022-12-03T21:54:53.227Z,24.05
2022-12-03T21:57:21.165Z,22.85
2022-12-03T21:59:50.966Z,23.63
2022-12-03T22:02:27.337Z,23.95
2022-12-03T22:04:57.485Z,20.67
2022-12-03T22:07:25.170Z,22.60
2022-12-03T22:09:56.532Z,22.42
2022-12-03T22:12:24.220Z,21.33
2022-12-03T22:14:57.272Z,25.23
2022-12-03T22:17:27.373Z,23.70
2022-12-03T22:19:55.229Z,23.38
2022-12-03T22:22:22.735Z,23.25
2022-12-03T22:24:49.974Z,24.90
2022-12-03T22:27:17.272Z,25.10
2022-12-03T22:29:44.652Z,25.73
2022-12-03T22:32:12.041Z,25.38
2022-12-03T22:34:41.125Z,26.58
2022-12-03T22:37:08.703Z,28.35
2022-12-03T22:39:36.048Z,24.48
2022-12-03T22:42:03.502Z,29.77
2022-12-03T22:44:30.998Z,31.02
2022-12-03T22:47:01.126Z,28.60
2022-12-03T22:49:29.039Z,32.03
2022-12-03T22:51:56.276Z,29.90
2022-12-03T22:54:24.266Z,28.63
2022-12-03T22:56:54.395Z,26.92
2022-12-03T22:59:21.825Z,29.48
2022-12-03T23:01:49.277Z,33.58
2022-12-03T23:04:16.924Z,33.65
2022-12-03T23:06:46.002Z,29.50
2022-12-03T23:09:13.593Z,28.92
2022-12-03T23:11:43.048Z,28.55
2022-12-03T23:14:10.512Z,28.80
2022-12-03T23:16:39.001Z,26.20
2022-12-03T23:19:06.435Z,23.67
2022-12-03T23:21:34.984Z,26.55
2022-12-03T23:24:04.443Z,25.40
2022-12-03T23:26:36.055Z,26.38
2022-12-03T23:29:04.745Z,24.15
2022-12-03T23:31:33.953Z,24.85
2022-12-03T23:34:01.948Z,24.25
2022-12-03T23:36:36.428Z,23.77
2022-12-03T23:39:04.508Z,21.90
2022-12-03T23:41:33.149Z,22.92
2022-12-03T23:44:04.629Z,22.75
2022-12-03T23:46:32.334Z,21.87
2022-12-03T23:49:00.102Z,20.70
2022-12-03T23:51:27.755Z,20.48
2022-12-03T23:53:56.299Z,21.65
2022-12-03T23:56:27.629Z,21.50
2022-12-03T23:58:57.512Z,21.42
